createdAt,value
2022-12-15T00:01:05.060Z,2.47
2022-12-15T00:03:54.098Z,3.30
2022-12-15T00:06:42.988Z,4.48
2022-12-15T00:09:31.308Z,5.20
2022-12-15T00:12:20.108Z,3.83
2022-12-15T00:15:09.189Z,2.36
2022-12-15T00:17:57.233Z,3.40
2022-12-15T00:20:45.767Z,4.35
2022-12-15T00:23:34.432Z,4.75
2022-12-15T00:26:22.861Z,4.80
2022-12-15T00:29:11.009Z,3.04
2022-12-15T00:31:59.442Z,2.90
2022-12-15T00:34:48.110Z,4.17
2022-12-15T00:37:36.802Z,4.65
2022-12-15T00:40:08.663Z,4.63
2022-12-15T00:42:39.601Z,3.08
2022-12-15T00:45:11.479Z,2.39
2022-12-15T00:47:42.554Z,3.59
2022-12-15T00:50:30.901Z,4.63
2022-12-15T00:53:19.558Z,3.82
2022-12-15T00:56:08.120Z,2.54
2022-12-15T00:58:56.464Z,3.44
2022-12-15T01:01:45.027Z,4.44
2022-12-15T01:04:38.373Z,5.05
2022-12-15T01:07:26.414Z,4.22
2022-12-15T01:10:14.858Z,2.46
2022-12-15T01:13:03.930Z,2.66
2022-12-15T01:15:57.047Z,3.87
2022-12-15T01:18:49.426Z,4.81
2022-12-15T01:21:24.316Z,4.22
2022-12-15T01:23:56.138Z,2.94
2022-12-15T01:26:26.947Z,3.49
2022-12-15T01:28:57.664Z,4.25
2022-12-15T01:31:28.369Z,4.48
2022-12-15T01:33:59.345Z,4.95
2022-12-15T01:36:30.129Z,3.74
2022-12-15T01:39:00.750Z,2.90
2022-12-15T01:41:31.893Z,3.61
2022-12-15T01:44:16.099Z,4.44
2022-12-15T01:46:47.757Z,5.11
2022-12-15T01:49:22.025Z,4.09
2022-12-15T01:51:53.710Z,3.02
2022-12-15T01:54:26.506Z,3.67
2022-12-15T01:56:59.450Z,4.63
2022-12-15T01:59:31.815Z,4.31
2022-12-15T02:02:03.317Z,4.35
2022-12-15T02:04:34.999Z,4.68
2022-12-15T02:07:05.904Z,5.17
2022-12-15T02:09:36.845Z,3.99
2022-12-15T02:12:11.007Z,2.58
2022-12-15T02:14:54.381Z,2.91
2022-12-15T02:17:23.788Z,3.94
2022-12-15T02:20:11.519Z,4.64
2022-12-15T02:22:49.060Z,5.30
2022-12-15T02:25:32.849Z,4.42
2022-12-15T02:28:05.905Z,2.66
2022-12-15T02:30:42.736Z,2.73
2022-12-15T02:33:16.412Z,3.93
2022-12-15T02:35:51.616Z,4.60
2022-12-15T02:38:31.407Z,3.71
2022-12-15T02:41:03.003Z,2.55
2022-12-15T02:43:35.649Z,3.39
2022-12-15T02:46:12.467Z,3.96
2022-12-15T02:48:50.245Z,4.43
2022-12-15T02:51:25.981Z,4.56
2022-12-15T02:54:08.732Z,4.87
2022-12-15T02:56:44.019Z,3.30
2022-12-15T02:59:17.519Z,2.78
2022-12-15T03:01:46.805Z,3.77
2022-12-15T03:04:21.607Z,4.16
2022-12-15T03:07:00.832Z,4.45
2022-12-15T03:09:33.347Z,4.96
2022-12-15T03:12:04.085Z,4.30
2022-12-15T03:14:35.050Z,2.92
2022-12-15T03:17:07.809Z,3.14
2022-12-15T03:19:38.874Z,3.89
2022-12-15T03:22:09.842Z,4.95
2022-12-15T03:24:40.753Z,4.41
2022-12-15T03:27:11.293Z,2.69
2022-12-15T03:29:42.276Z,2.26
2022-12-15T03:32:13.042Z,3.28
2022-12-15T03:34:44.270Z,3.98
2022-12-15T03:37:14.805Z,4.81
2022-12-15T03:39:46.216Z,4.93
2022-12-15T03:42:36.831Z,3.22
2022-12-15T03:45:08.635Z,2.59
2022-12-15T03:47:41.475Z,3.49
2022-12-15T03:50:12.945Z,4.21
2022-12-15T03:52:43.562Z,4.86
2022-12-15T03:55:14.493Z,4.71
2022-12-15T03:57:45.082Z,3.47
2022-12-15T04:00:16.838Z,2.61
2022-12-15T04:02:50.387Z,3.77
2022-12-15T04:05:23.157Z,4.23
2022-12-15T04:07:53.789Z,4.58
2022-12-15T04:10:30.181Z,5.17
2022-12-15T04:13:04.673Z,4.19
2022-12-15T04:15:36.246Z,2.90
2022-12-15T04:18:07.722Z,3.19
2022-12-15T04:20:39.228Z,3.95
2022-12-15T04:23:09.872Z,4.42
2022-12-15T04:25:58.436Z,5.09
2022-12-15T04:28:46.659Z,4.60
2022-12-15T04:31:36.992Z,3.04
2022-12-15T04:34:26.288Z,3.76
2022-12-15T04:37:14.665Z,4.16
2022-12-15T04:40:04.849Z,4.97
2022-12-15T04:42:56.579Z,3.91
2022-12-15T04:45:44.890Z,3.11
2022-12-15T04:48:32.973Z,3.99
2022-12-15T04:51:23.736Z,5.12
2022-12-15T04:54:12.687Z,3.98
2022-12-15T04:57:01.385Z,3.39
2022-12-15T04:59:49.731Z,4.39
2022-12-15T05:02:38.420Z,5.18
2022-12-15T05:05:27.196Z,3.83
2022-12-15T05:08:17.884Z,3.41
2022-12-15T05:11:06.383Z,4.46
2022-12-15T05:13:55.791Z,5.15
2022-12-15T05:16:44.163Z,4.81
2022-12-15T05:19:32.349Z,3.31
2022-12-15T05:22:21.301Z,4.21
2022-12-15T05:25:09.608Z,5.09
2022-12-15T05:27:57.961Z,4.98
2022-12-15T05:30:46.204Z,3.26
2022-12-15T05:33:17.313Z,3.59
2022-12-15T05:35:48.214Z,4.43
2022-12-15T05:38:19.575Z,4.85
2022-12-15T05:40:50.655Z,5.52
2022-12-15T05:43:26.190Z,4.99
2022-12-15T05:45:57.432Z,3.58
2022-12-15T05:48:29.748Z,4.36
2022-12-15T05:51:03.834Z,5.47
2022-12-15T05:53:35.027Z,4.45
2022-12-15T05:56:06.376Z,3.14
2022-12-15T05:58:41.526Z,3.57
2022-12-15T06:01:17.255Z,4.39
2022-12-15T06:03:48.101Z,5.17
2022-12-15T06:06:19.243Z,5.77
2022-12-15T06:08:50.384Z,4.68
2022-12-15T06:11:22.755Z,3.45
2022-12-15T06:13:53.842Z,4.06
2022-12-15T06:16:25.441Z,4.57
2022-12-15T06:18:57.507Z,5.33
2022-12-15T06:21:29.519Z,5.27
2022-12-15T06:24:00.866Z,3.97
2022-12-15T06:26:32.999Z,3.95
2022-12-15T06:29:04.547Z,5.19
2022-12-15T06:31:36.009Z,6.07
2022-12-15T06:34:07.666Z,4.14
2022-12-15T06:36:39.599Z,3.90
2022-12-15T06:39:12.763Z,5.14
2022-12-15T06:41:43.745Z,5.48
2022-12-15T06:44:15.939Z,6.01
2022-12-15T06:46:46.990Z,4.82
2022-12-15T06:49:17.696Z,3.93
2022-12-15T06:51:49.882Z,4.21
2022-12-15T06:54:21.710Z,4.76
2022-12-15T06:56:53.563Z,5.77
2022-12-15T06:59:24.913Z,4.99
2022-12-15T07:01:56.028Z,4.11
2022-12-15T07:04:27.295Z,4.81
2022-12-15T07:06:58.173Z,5.58
2022-12-15T07:09:29.072Z,5.97
2022-12-15T07:11:59.874Z,5.21
2022-12-15T07:14:30.835Z,3.88
2022-12-15T07:17:01.578Z,4.63
2022-12-15T07:19:32.362Z,5.70
2022-12-15T07:22:03.010Z,5.19
2022-12-15T07:24:33.813Z,4.15
2022-12-15T07:27:04.844Z,4.73
2022-12-15T07:29:37.334Z,5.93
2022-12-15T07:32:08.241Z,4.96
2022-12-15T07:34:39.263Z,4.32
2022-12-15T07:37:10.206Z,5.37
2022-12-15T07:39:41.141Z,5.84
2022-12-15T07:42:11.877Z,5.87
2022-12-15T07:44:42.848Z,5.96
2022-12-15T07:47:13.394Z,6.24
2022-12-15T07:49:44.842Z,5.03
2022-12-15T07:52:15.442Z,4.30
2022-12-15T07:54:46.543Z,5.18
2022-12-15T07:57:17.984Z,5.95
2022-12-15T07:59:49.163Z,4.88
2022-12-15T08:02:20.324Z,4.45
2022-12-15T08:04:53.486Z,5.38
2022-12-15T08:07:24.270Z,6.09
2022-12-15T08:09:55.481Z,4.75
2022-12-15T08:12:26.147Z,3.98
2022-12-15T08:14:58.095Z,5.10
2022-12-15T08:17:28.799Z,6.24
2022-12-15T08:20:01.417Z,4.81
2022-12-15T08:22:34.289Z,3.86
2022-12-15T08:25:05.495Z,4.87
2022-12-15T08:27:36.232Z,5.45
2022-12-15T08:30:08.076Z,6.03
2022-12-15T08:32:39.711Z,6.36
2022-12-15T08:35:31.724Z,4.65
2022-12-15T08:38:05.836Z,4.15
2022-12-15T08:40:36.926Z,5.29
2022-12-15T08:43:07.711Z,5.69
2022-12-15T08:45:41.842Z,6.06
2022-12-15T08:48:12.459Z,4.50
2022-12-15T08:50:45.761Z,4.18
2022-12-15T08:53:32.308Z,5.46
2022-12-15T08:56:07.049Z,5.53
2022-12-15T08:58:38.276Z,4.01
2022-12-15T09:01:10.555Z,4.38
2022-12-15T09:03:41.778Z,5.54
2022-12-15T09:06:14.429Z,4.90
2022-12-15T09:08:45.303Z,3.79
2022-12-15T09:11:21.116Z,4.66
2022-12-15T09:13:51.868Z,5.40
2022-12-15T09:16:22.995Z,4.14
2022-12-15T09:18:54.702Z,3.20
2022-12-15T09:21:26.870Z,4.26
2022-12-15T09:24:00.937Z,5.27
2022-12-15T09:26:32.642Z,5.81
2022-12-15T09:29:03.715Z,4.07
2022-12-15T09:31:35.014Z,3.28
2022-12-15T09:34:05.950Z,4.09
2022-12-15T09:36:37.251Z,5.06
2022-12-15T09:39:09.174Z,4.28
2022-12-15T09:41:40.565Z,3.08
2022-12-15T09:44:14.171Z,3.80
2022-12-15T09:46:52.307Z,4.60
2022-12-15T09:49:39.863Z,5.47
2022-12-15T09:52:13.236Z,3.91
2022-12-15T09:54:44.762Z,3.12
2022-12-15T09:57:20.406Z,4.00
2022-12-15T10:00:03.800Z,4.76
2022-12-15T10:03:01.850Z,5.68
2022-12-15T10:06:07.225Z,5.71
2022-12-15T10:08:33.809Z,3.94
2022-12-15T10:11:06.189Z,3.69
2022-12-15T10:13:41.150Z,5.24
2022-12-15T10:16:18.735Z,4.84
2022-12-15T10:18:59.229Z,3.43
2022-12-15T10:21:32.715Z,4.35
2022-12-15T10:24:12.145Z,5.27
2022-12-15T10:26:43.905Z,4.94
2022-12-15T10:29:21.613Z,3.57
2022-12-15T10:31:54.963Z,3.32
2022-12-15T10:34:27.519Z,4.67
2022-12-15T10:36:59.402Z,5.29
2022-12-15T10:39:39.548Z,3.94
2022-12-15T10:42:14.651Z,3.06
2022-12-15T10:44:50.552Z,4.66
2022-12-15T10:47:23.221Z,3.72
2022-12-15T10:49:54.629Z,3.30
2022-12-15T10:52:28.273Z,4.49
2022-12-15T10:54:59.100Z,3.42
2022-12-15T10:57:31.894Z,3.02
2022-12-15T11:00:22.868Z,4.34
2022-12-15T11:02:53.714Z,5.28
2022-12-15T11:05:25.913Z,5.70
2022-12-15T11:07:57.264Z,4.35
2022-12-15T11:10:49.929Z,3.05
2022-12-15T11:13:21.540Z,3.75
2022-12-15T11:15:55.000Z,4.84
2022-12-15T11:18:34.146Z,5.78
2022-12-15T11:21:07.355Z,4.62
2022-12-15T11:23:48.755Z,3.15
2022-12-15T11:26:24.334Z,2.62
2022-12-15T11:28:57.843Z,4.22
2022-12-15T11:31:34.563Z,5.08
2022-12-15T11:34:05.354Z,5.61
2022-12-15T11:36:46.017Z,5.07
2022-12-15T11:39:23.978Z,3.66
2022-12-15T11:41:59.126Z,3.67
2022-12-15T11:44:37.713Z,4.65
2022-12-15T11:47:13.364Z,3.44
2022-12-15T11:49:51.435Z,2.97
2022-12-15T11:52:32.801Z,4.15
2022-12-15T11:55:08.703Z,5.16
2022-12-15T11:57:50.483Z,4.41
2022-12-15T12:00:21.994Z,3.21
2022-12-15T12:02:58.967Z,3.43
2022-12-15T12:05:44.137Z,4.65
2022-12-15T12:08:32.778Z,5.79
2022-12-15T12:11:07.748Z,4.71
2022-12-15T12:13:40.273Z,3.26
2022-12-15T12:16:16.130Z,3.32
2022-12-15T12:18:50.424Z,4.43
2022-12-15T12:21:24.342Z,5.69
2022-12-15T12:23:57.223Z,4.74
2022-12-15T12:26:34.124Z,3.55
2022-12-15T12:29:07.831Z,3.91
2022-12-15T12:31:42.636Z,5.09
2022-12-15T12:34:15.369Z,5.60
2022-12-15T12:36:48.946Z,4.72
2022-12-15T12:39:21.633Z,3.52
2022-12-15T12:41:55.720Z,3.53
2022-12-15T12:44:31.072Z,4.95
2022-12-15T12:47:08.772Z,5.28
2022-12-15T12:49:40.515Z,4.09
2022-12-15T12:52:18.280Z,3.12
2022-12-15T12:54:57.128Z,3.69
2022-12-15T12:57:36.395Z,5.09
2022-12-15T13:00:14.881Z,5.51
2022-12-15T13:03:12.507Z,4.18
2022-12-15T13:05:44.298Z,3.23
2022-12-15T13:08:29.158Z,3.97
2022-12-15T13:11:20.300Z,5.24
2022-12-15T13:13:53.192Z,5.68
2022-12-15T13:16:26.372Z,4.51
2022-12-15T13:18:58.726Z,3.52
2022-12-15T13:21:50.154Z,3.88
2022-12-15T13:24:27.624Z,5.25
2022-12-15T13:27:06.339Z,5.86
2022-12-15T13:29:38.086Z,4.53
2022-12-15T13:32:26.197Z,3.40
2022-12-15T13:34:57.815Z,3.03
2022-12-15T13:37:41.823Z,4.24
2022-12-15T13:40:26.043Z,5.37
2022-12-15T13:42:59.736Z,6.28
2022-12-15T13:45:38.310Z,6.57
2022-12-15T13:48:14.619Z,5.46
2022-12-15T13:50:51.233Z,4.33
2022-12-15T13:53:25.357Z,3.46
2022-12-15T13:55:55.556Z,3.12
2022-12-15T13:58:27.031Z,4.19
2022-12-15T14:00:59.037Z,5.55
2022-12-15T14:03:30.810Z,6.41
2022-12-15T14:06:02.023Z,6.64
2022-12-15T14:08:32.964Z,5.56
2022-12-15T14:11:22.417Z,4.45
2022-12-15T14:14:00.516Z,3.54
2022-12-15T14:16:35.972Z,2.95
2022-12-15T14:19:14.147Z,2.83
2022-12-15T14:21:51.607Z,4.06
2022-12-15T14:24:42.256Z,5.48
2022-12-15T14:27:22.660Z,6.19
2022-12-15T14:30:09.593Z,6.46
2022-12-15T14:32:41.156Z,5.17
2022-12-15T14:35:15.170Z,3.92
2022-12-15T14:37:46.208Z,3.68
2022-12-15T14:40:22.389Z,4.66
2022-12-15T14:42:56.428Z,5.60
2022-12-15T14:45:28.682Z,6.35
2022-12-15T14:48:30.983Z,5.50
2022-12-15T14:50:52.139Z,4.08
2022-12-15T14:53:23.632Z,3.50
2022-12-15T14:55:54.950Z,4.58
2022-12-15T14:58:32.649Z,5.69
2022-12-15T15:01:07.381Z,6.38
2022-12-15T15:03:39.743Z,6.23
2022-12-15T15:06:19.329Z,4.95
2022-12-15T15:08:51.024Z,3.83
2022-12-15T15:11:29.590Z,3.46
2022-12-15T15:14:01.967Z,4.67
2022-12-15T15:16:33.178Z,5.81
2022-12-15T15:19:04.968Z,6.56
2022-12-15T15:21:37.861Z,6.39
2022-12-15T15:24:22.341Z,5.07
2022-12-15T15:26:53.193Z,3.86
2022-12-15T15:29:38.034Z,3.35
2022-12-15T15:32:16.065Z,4.53
2022-12-15T15:34:48.016Z,5.79
2022-12-15T15:37:20.085Z,6.60
2022-12-15T15:39:51.378Z,6.62
2022-12-15T15:42:25.463Z,5.43
2022-12-15T15:45:00.519Z,4.33
2022-12-15T15:47:31.576Z,3.59
2022-12-15T15:50:02.689Z,3.26
2022-12-15T15:52:34.567Z,4.25
2022-12-15T15:55:05.720Z,5.42
2022-12-15T15:57:36.587Z,6.14
2022-12-15T16:00:17.121Z,6.65
2022-12-15T16:02:48.023Z,6.52
2022-12-15T16:05:19.290Z,5.33
2022-12-15T16:07:50.792Z,4.19
2022-12-15T16:10:22.193Z,3.31
2022-12-15T16:12:55.025Z,3.01
2022-12-15T16:15:27.781Z,4.15
2022-12-15T16:18:02.460Z,5.23
2022-12-15T16:20:34.229Z,5.98
2022-12-15T16:23:06.568Z,6.21
2022-12-15T16:25:48.412Z,5.49
2022-12-15T16:28:22.715Z,4.11
2022-12-15T16:30:54.234Z,3.41
2022-12-15T16:33:25.558Z,4.28
2022-12-15T16:35:56.517Z,5.31
2022-12-15T16:38:29.048Z,5.87
2022-12-15T16:41:00.742Z,6.33
2022-12-15T16:43:36.645Z,6.09
2022-12-15T16:46:12.785Z,4.75
2022-12-15T16:48:43.924Z,3.93
2022-12-15T16:51:27.940Z,4.78
2022-12-15T16:53:59.148Z,5.86
2022-12-15T16:56:29.785Z,6.32
2022-12-15T17:09:23.502Z,4.95
2022-12-15T17:11:54.709Z,5.93
2022-12-15T17:14:25.419Z,6.40
2022-12-15T17:16:56.187Z,5.55
2022-12-15T17:19:26.983Z,4.32
2022-12-15T17:21:58.338Z,3.64
2022-12-15T17:24:29.456Z,4.49
2022-12-15T17:27:00.776Z,5.43
2022-12-15T17:29:32.072Z,6.06
2022-12-15T17:32:02.757Z,6.13
2022-12-15T17:34:34.886Z,4.79
2022-12-15T17:37:07.767Z,3.61
2022-12-15T17:39:38.444Z,2.98
2022-12-15T17:42:13.349Z,3.87
2022-12-15T17:44:46.807Z,4.70
2022-12-15T17:47:17.853Z,5.32
2022-12-15T17:49:48.631Z,5.52
2022-12-15T17:52:23.442Z,5.05
2022-12-15T17:54:54.720Z,3.86
2022-12-15T17:57:25.711Z,3.16
2022-12-15T17:59:56.446Z,3.75
2022-12-15T18:02:27.368Z,4.70
2022-12-15T18:04:59.128Z,5.18
2022-12-15T18:07:29.584Z,5.51
2022-12-15T18:10:00.581Z,4.66
2022-12-15T18:12:31.220Z,3.72
2022-12-15T18:15:02.052Z,4.37
2022-12-15T18:17:32.793Z,5.27
2022-12-15T18:20:04.893Z,5.45
2022-12-15T18:22:35.538Z,4.40
2022-12-15T18:25:08.653Z,3.25
2022-12-15T18:27:39.774Z,2.70
2022-12-15T18:30:15.866Z,3.60
2022-12-15T18:32:47.504Z,4.49
2022-12-15T18:35:20.189Z,5.26
2022-12-15T18:37:54.740Z,5.64
2022-12-15T18:40:28.345Z,5.80
2022-12-15T18:42:57.610Z,4.80
2022-12-15T18:45:28.546Z,3.44
2022-12-15T18:47:59.717Z,2.79
2022-12-15T18:50:30.690Z,3.64
2022-12-15T18:53:02.965Z,4.59
2022-12-15T18:55:34.471Z,5.05
2022-12-15T18:58:05.477Z,5.35
2022-12-15T19:00:37.210Z,4.89
2022-12-15T19:03:08.079Z,3.65
2022-12-15T19:05:40.121Z,2.96
2022-12-15T19:08:14.342Z,3.68
2022-12-15T19:10:48.920Z,4.54
2022-12-15T19:13:20.936Z,5.09
2022-12-15T19:15:52.488Z,5.29
2022-12-15T19:18:41.771Z,5.52
2022-12-15T19:21:33.331Z,4.86
2022-12-15T19:24:04.306Z,3.59
2022-12-15T19:26:35.229Z,2.96
2022-12-15T19:29:11.787Z,3.81
2022-12-15T19:31:42.321Z,4.77
2022-12-15T19:34:13.080Z,5.32
2022-12-15T19:36:43.752Z,5.46
2022-12-15T19:39:20.218Z,4.15
2022-12-15T19:41:51.162Z,2.91
2022-12-15T19:44:22.088Z,2.54
2022-12-15T19:46:52.523Z,3.55
2022-12-15T19:49:23.560Z,4.27
2022-12-15T19:51:54.594Z,4.79
2022-12-15T19:54:25.652Z,4.79
2022-12-15T19:56:56.479Z,3.66
2022-12-15T19:59:28.498Z,2.72
2022-12-15T20:01:59.328Z,3.16
2022-12-15T20:04:32.565Z,4.03
2022-12-15T20:07:04.273Z,4.51
2022-12-15T20:09:36.184Z,4.19
2022-12-15T20:12:07.240Z,2.90
2022-12-15T20:14:38.103Z,2.93
2022-12-15T20:17:08.540Z,3.77
2022-12-15T20:19:39.581Z,4.38
2022-12-15T20:22:13.060Z,4.53
2022-12-15T20:24:44.793Z,3.32
2022-12-15T20:27:16.744Z,2.33
2022-12-15T20:29:48.031Z,2.82
2022-12-15T20:32:19.760Z,3.71
2022-12-15T20:34:50.625Z,4.42
2022-12-15T20:37:22.539Z,4.41
2022-12-15T20:39:57.489Z,3.44
2022-12-15T20:42:29.829Z,2.51
2022-12-15T20:45:00.955Z,3.02
2022-12-15T20:47:31.507Z,3.92
2022-12-15T20:50:04.676Z,4.32
2022-12-15T20:52:33.892Z,3.65
2022-12-15T20:55:07.601Z,2.46
2022-12-15T20:57:38.440Z,2.16
2022-12-15T21:00:13.409Z,3.09
2022-12-15T21:02:44.483Z,4.20
2022-12-15T21:05:20.025Z,4.74
2022-12-15T21:07:52.531Z,3.72
2022-12-15T21:10:23.665Z,2.57
2022-12-15T21:12:55.970Z,1.91
2022-12-15T21:15:26.930Z,2.73
2022-12-15T21:18:20.009Z,3.78
2022-12-15T21:20:49.788Z,4.59
2022-12-15T21:23:24.149Z,3.87
2022-12-15T21:25:57.454Z,2.67
2022-12-15T21:28:28.444Z,2.11
2022-12-15T21:30:59.587Z,3.04
2022-12-15T21:33:30.481Z,3.97
2022-12-15T21:36:01.821Z,3.87
2022-12-15T21:38:34.710Z,2.73
2022-12-15T21:41:07.384Z,2.06
2022-12-15T21:43:38.020Z,2.99
2022-12-15T21:46:15.095Z,3.85
2022-12-15T21:49:03.613Z,4.48
2022-12-15T21:51:35.713Z,4.14
2022-12-15T21:54:07.368Z,2.78
2022-12-15T21:56:38.165Z,2.08
2022-12-15T21:59:12.740Z,2.83
2022-12-15T22:01:43.897Z,3.77
2022-12-15T22:04:19.353Z,4.39
2022-12-15T22:06:50.950Z,3.29
2022-12-15T22:09:21.886Z,2.26
2022-12-15T22:11:54.821Z,2.84
2022-12-15T22:14:27.065Z,3.89
2022-12-15T22:16:58.038Z,4.15
2022-12-15T22:19:29.037Z,3.40
2022-12-15T22:21:59.946Z,2.41
2022-12-15T22:24:30.502Z,1.82
2022-12-15T22:27:01.380Z,2.63
2022-12-15T22:29:32.038Z,3.74
2022-12-15T22:32:03.211Z,4.17
2022-12-15T22:34:33.844Z,3.18
2022-12-15T22:37:04.735Z,2.13
2022-12-15T22:39:35.442Z,2.49
2022-12-15T22:42:07.042Z,3.73
2022-12-15T22:44:38.422Z,4.02
2022-12-15T22:47:11.810Z,2.95
2022-12-15T22:49:40.702Z,2.30
2022-12-15T22:52:16.581Z,2.90
2022-12-15T22:54:47.936Z,4.02
2022-12-15T22:57:21.661Z,4.20
2022-12-15T22:59:53.550Z,3.12
2022-12-15T23:02:25.364Z,2.15
2022-12-15T23:04:56.974Z,2.68
2022-12-15T23:07:27.938Z,3.70
2022-12-15T23:10:14.472Z,4.70
2022-12-15T23:12:57.866Z,4.55
2022-12-15T23:16:15.154Z,3.14
2022-12-15T23:19:00.803Z,1.90
2022-12-15T23:21:32.979Z,2.73
2022-12-15T23:24:03.650Z,3.87
2022-12-15T23:26:34.519Z,4.36
2022-12-15T23:29:05.323Z,3.53
2022-12-15T23:31:36.674Z,2.32
2022-12-15T23:34:07.331Z,2.37
2022-12-15T23:36:38.459Z,3.45
2022-12-15T23:39:09.084Z,4.37
2022-12-15T23:41:40.115Z,4.66
2022-12-15T23:44:12.588Z,3.58
2022-12-15T23:46:43.284Z,2.41
2022-12-15T23:49:14.197Z,2.82
2022-12-15T23:51:44.839Z,3.58
2022-12-15T23:54:15.903Z,4.29
2022-12-15T23:56:46.915Z,4.07
2022-12-15T23:59:17.661Z,2.80
